Time;durP1;ratioP1;P1;durP2;ratioP2;P2;SDS_P1;SDS_P2;PMS_P1;PMS_P2;Temp;Humidity;BMP_temperature;BMP_pressure;BME280_temperature;BME280_humidity;BME280_pressure;Samples;Min_cycle;Max_cycle;Signal;HPM_P1;HPM_P2
2022/07/18 00:02:13;;;;;;;1.40;0.50;;;17.60;99.90;;;;;;5004922;28;20320;-66
2022/07/18 00:04:41;;;;;;;2.10;1.25;;;17.60;99.90;;;;;;4999431;28;20058;-65
2022/07/18 00:07:10;;;;;;;1.13;0.55;;;17.60;99.90;;;;;;5001300;28;20068;-66
2022/07/18 00:09:38;;;;;;;0.52;0.40;;;17.60;99.90;;;;;;5003353;28;20457;-65
2022/07/18 00:12:07;;;;;;;3.25;0.50;;;17.60;99.90;;;;;;5005128;28;20207;-67
2022/07/18 00:14:35;;;;;;;1.83;0.65;;;17.60;99.90;;;;;;5006708;28;20050;-66
2022/07/18 00:17:03;;;;;;;1.55;0.50;;;17.60;99.90;;;;;;5005171;28;20039;-66
2022/07/18 00:19:30;;;;;;;1.25;0.80;;;17.60;99.90;;;;;;5005663;28;20385;-68
2022/07/18 00:21:57;;;;;;;0.77;0.77;;;17.60;99.90;;;;;;5002874;28;20061;-65
2022/07/18 00:24:24;;;;;;;1.17;0.90;;;17.60;99.90;;;;;;5003110;28;20081;-65
2022/07/18 00:26:51;;;;;;;1.02;0.75;;;17.60;99.90;;;;;;5002491;28;20030;-68
2022/07/18 00:29:18;;;;;;;1.63;0.60;;;17.60;99.90;;;;;;5004943;28;20087;-65
2022/07/18 00:31:45;;;;;;;1.05;0.80;;;17.60;99.90;;;;;;5003512;28;20100;-68
2022/07/18 00:34:12;;;;;;;0.75;0.75;;;17.60;99.90;;;;;;5001185;28;20046;-65
2022/07/18 00:36:39;;;;;;;0.70;0.57;;;17.60;99.90;;;;;;5004558;28;20084;-65
2022/07/18 00:39:06;;;;;;;1.90;1.27;;;17.60;99.90;;;;;;5002292;28;20693;-68
2022/07/18 00:41:33;;;;;;;1.88;1.48;;;17.50;99.90;;;;;;5005233;28;20422;-66
2022/07/18 00:44:00;;;;;;;0.85;0.77;;;17.50;99.90;;;;;;5006150;28;20128;-67
2022/07/18 00:46:28;;;;;;;0.88;0.60;;;17.50;99.90;;;;;;5003846;28;20495;-67
2022/07/18 00:48:56;;;;;;;1.30;1.02;;;17.50;99.90;;;;;;5002124;28;20046;-74
2022/07/18 00:51:23;;;;;;;1.65;0.70;;;17.50;99.90;;;;;;5004839;28;20123;-66
2022/07/18 00:53:50;;;;;;;1.35;0.90;;;17.50;99.90;;;;;;5004132;28;20129;-66
2022/07/18 00:56:18;;;;;;;1.00;0.80;;;17.50;99.90;;;;;;5002419;28;20332;-69
2022/07/18 00:58:46;;;;;;;1.25;0.88;;;17.50;99.90;;;;;;4999641;28;20192;-70
2022/07/18 01:03:59;;;;;;;0.70;0.63;;;17.50;99.90;;;;;;5005881;28;20038;-68
2022/07/18 01:06:26;;;;;;;1.08;0.75;;;17.60;99.90;;;;;;5002408;28;20112;-66
2022/07/18 01:08:53;;;;;;;0.30;0.30;;;17.60;99.90;;;;;;5001158;28;20133;-66
2022/07/18 01:11:21;;;;;;;2.72;0.73;;;17.60;99.90;;;;;;5000270;28;20039;-66
2022/07/18 01:13:49;;;;;;;2.95;1.00;;;17.60;99.90;;;;;;4998010;28;20456;-65
2022/07/18 01:16:17;;;;;;;1.10;0.75;;;17.60;99.90;;;;;;5004296;28;20077;-68
2022/07/18 01:18:46;;;;;;;1.45;0.80;;;17.60;99.90;;;;;;5003855;28;20451;-65
2022/07/18 01:21:14;;;;;;;2.58;2.30;;;17.60;99.90;;;;;;5000804;28;20127;-65
2022/07/18 01:23:42;;;;;;;2.78;1.75;;;17.60;99.90;;;;;;4996889;28;20073;-71
2022/07/18 01:26:10;;;;;;;1.83;1.10;;;17.60;99.90;;;;;;5004598;28;20056;-65
2022/07/18 01:28:37;;;;;;;2.58;1.95;;;17.60;99.90;;;;;;5004583;28;20159;-65
2022/07/18 01:31:04;;;;;;;1.85;1.35;;;17.60;99.90;;;;;;5004043;28;20041;-65
2022/07/18 01:33:32;;;;;;;1.75;1.40;;;17.60;99.90;;;;;;5005892;28;20065;-66
2022/07/18 01:36:01;;;;;;;1.52;1.25;;;17.60;99.90;;;;;;5002712;28;20425;-66
2022/07/18 01:38:28;;;;;;;5.18;1.98;;;17.60;99.90;;;;;;5001988;28;20037;-74
2022/07/18 01:40:56;;;;;;;2.03;1.67;;;17.60;99.90;;;;;;5001349;28;20090;-71
2022/07/18 01:43:24;;;;;;;2.95;1.63;;;17.60;99.90;;;;;;5001757;28;20096;-68
2022/07/18 01:45:51;;;;;;;1.95;1.17;;;17.50;99.90;;;;;;5005611;28;20121;-68
2022/07/18 01:48:19;;;;;;;4.63;2.00;;;17.50;99.90;;;;;;5007440;28;20726;-67
2022/07/18 01:50:46;;;;;;;4.20;1.30;;;17.50;99.90;;;;;;5006566;28;20491;-66
2022/07/18 01:53:13;;;;;;;3.13;1.30;;;17.50;99.90;;;;;;5002741;28;20057;-65
2022/07/18 01:55:40;;;;;;;2.40;1.83;;;17.40;99.90;;;;;;5006566;28;20099;-67
2022/07/18 01:58:07;;;;;;;4.35;1.10;;;17.40;99.90;;;;;;5001444;28;20085;-65
2022/07/18 02:00:34;;;;;;;2.28;1.65;;;17.40;99.90;;;;;;5008840;28;20045;-65
2022/07/18 02:03:01;;;;;;;1.98;1.27;;;17.40;99.90;;;;;;5009770;28;20159;-66
2022/07/18 02:05:28;;;;;;;2.88;1.10;;;17.40;99.90;;;;;;5010604;28;20040;-66
2022/07/18 02:07:55;;;;;;;3.55;1.77;;;17.30;99.90;;;;;;5003700;28;20057;-72
2022/07/18 02:10:22;;;;;;;2.58;1.63;;;17.30;99.90;;;;;;5006814;28;20156;-66
2022/07/18 02:12:49;;;;;;;2.22;1.35;;;17.30;99.90;;;;;;5008825;28;20080;-66
2022/07/18 02:15:16;;;;;;;2.97;1.80;;;17.30;99.90;;;;;;5009358;28;20034;-66
2022/07/18 02:17:44;;;;;;;1.83;1.65;;;17.30;99.90;;;;;;5008456;28;20045;-66
2022/07/18 02:20:12;;;;;;;4.05;1.40;;;17.30;99.90;;;;;;5009008;28;20066;-67
2022/07/18 02:22:39;;;;;;;2.47;1.00;;;17.20;99.90;;;;;;5007166;28;20112;-74
2022/07/18 02:25:07;;;;;;;6.50;1.98;;;17.20;99.90;;;;;;5006828;28;20765;-66
2022/07/18 02:27:34;;;;;;;4.13;1.30;;;17.20;99.90;;;;;;5002396;28;20042;-65
2022/07/18 02:30:01;;;;;;;1.83;1.58;;;17.20;99.90;;;;;;5006466;28;20488;-67
2022/07/18 02:32:28;;;;;;;1.08;0.85;;;17.20;99.90;;;;;;5001303;28;20043;-66
2022/07/18 02:34:55;;;;;;;2.78;1.35;;;17.20;99.90;;;;;;5007397;28;20041;-67
2022/07/18 02:37:21;;;;;;;2.08;1.77;;;17.20;99.90;;;;;;5001932;28;20065;-67
2022/07/18 02:39:48;;;;;;;2.03;1.10;;;17.20;99.90;;;;;;5002029;28;20129;-66
2022/07/18 02:42:16;;;;;;;5.57;1.80;;;17.20;99.90;;;;;;5005195;28;20088;-69
2022/07/18 02:44:43;;;;;;;7.28;2.47;;;17.20;99.90;;;;;;5005987;28;20045;-65
2022/07/18 02:47:09;;;;;;;6.35;2.97;;;17.10;99.90;;;;;;5007803;28;20352;-66
2022/07/18 02:49:38;;;;;;;3.58;1.58;;;17.10;99.90;;;;;;5003762;28;20100;-66
2022/07/18 02:52:08;;;;;;;4.28;1.70;;;17.10;99.90;;;;;;5005902;28;20135;-68
2022/07/18 02:54:37;;;;;;;5.35;4.47;;;17.10;99.90;;;;;;4999583;28;20037;-71
2022/07/18 02:57:05;;;;;;;9.63;2.55;;;17.10;99.90;;;;;;5003404;28;20224;-65
2022/07/18 02:59:33;;;;;;;2.42;2.22;;;17.10;99.90;;;;;;5007515;28;20045;-66
2022/07/18 03:02:00;;;;;;;5.95;1.90;;;17.10;99.90;;;;;;5008819;28;20080;-65
2022/07/18 03:04:27;;;;;;;2.13;1.45;;;17.10;99.90;;;;;;5009907;28;20472;-66
2022/07/18 03:06:55;;;;;;;13.00;2.55;;;17.20;99.90;;;;;;5005758;28;20042;-71
2022/07/18 03:09:22;;;;;;;5.25;2.08;;;17.10;99.90;;;;;;5003661;28;20046;-69
2022/07/18 03:11:49;;;;;;;3.47;1.27;;;17.20;99.90;;;;;;5003656;28;20499;-66
2022/07/18 03:14:16;;;;;;;6.07;1.70;;;17.20;99.90;;;;;;5003607;28;20073;-67
2022/07/18 03:16:42;;;;;;;4.00;1.83;;;17.20;99.90;;;;;;5007501;28;20042;-66
2022/07/18 03:19:10;;;;;;;2.72;1.35;;;17.20;99.90;;;;;;5007180;28;20040;-65
2022/07/18 03:21:36;;;;;;;3.75;1.63;;;17.20;99.90;;;;;;5005124;28;20030;-68
2022/07/18 03:24:04;;;;;;;4.28;1.30;;;17.20;99.90;;;;;;5002215;28;20038;-67
2022/07/18 03:26:31;;;;;;;4.22;2.85;;;17.20;99.90;;;;;;5004431;28;20050;-66
2022/07/18 03:28:58;;;;;;;2.67;1.85;;;17.20;99.90;;;;;;5002699;28;20121;-71
2022/07/18 03:31:25;;;;;;;8.30;2.20;;;17.20;99.90;;;;;;5002311;28;20101;-69
2022/07/18 03:33:52;;;;;;;1.67;1.58;;;17.20;99.90;;;;;;5004733;28;20038;-67
2022/07/18 03:36:19;;;;;;;4.45;1.70;;;17.20;99.90;;;;;;5002743;28;20042;-69
2022/07/18 03:38:46;;;;;;;2.30;1.70;;;17.20;99.90;;;;;;5003572;28;20501;-68
2022/07/18 03:41:13;;;;;;;2.13;1.42;;;17.20;99.90;;;;;;5001979;28;20050;-74
2022/07/18 03:43:40;;;;;;;4.30;1.75;;;17.20;99.90;;;;;;5004980;28;20042;-69
2022/07/18 03:46:08;;;;;;;3.17;1.73;;;17.20;99.90;;;;;;5005482;28;20133;-66
2022/07/18 03:48:35;;;;;;;4.05;2.70;;;17.30;99.90;;;;;;5007053;28;20057;-66
2022/07/18 03:51:03;;;;;;;3.08;2.38;;;17.30;99.90;;;;;;5004831;28;20356;-69
2022/07/18 03:53:30;;;;;;;3.65;1.83;;;17.30;99.90;;;;;;5005145;28;20064;-69
2022/07/18 03:55:58;;;;;;;4.40;2.72;;;17.40;99.90;;;;;;5005304;28;20425;-66
2022/07/18 03:58:25;;;;;;;5.82;2.65;;;17.40;99.90;;;;;;5000502;28;20119;-67
2022/07/18 04:00:52;;;;;;;4.20;1.60;;;17.40;99.90;;;;;;5001365;28;20118;-71
2022/07/18 04:03:21;;;;;;;2.38;1.92;;;17.40;99.90;;;;;;5002264;28;20034;-69
2022/07/18 04:05:48;;;;;;;3.67;1.92;;;17.40;99.90;;;;;;5002843;28;20069;-66
2022/07/18 04:08:15;;;;;;;3.22;1.90;;;17.40;99.90;;;;;;5002140;28;20077;-69
2022/07/18 04:10:43;;;;;;;2.25;2.05;;;17.30;99.90;;;;;;5005166;28;20069;-66
2022/07/18 04:13:10;;;;;;;3.10;2.25;;;17.40;99.90;;;;;;5004190;28;20116;-72
2022/07/18 04:15:37;;;;;;;2.40;1.88;;;17.40;99.90;;;;;;5006329;28;20050;-66
2022/07/18 04:18:06;;;;;;;2.53;1.90;;;17.40;99.90;;;;;;4998434;28;20119;-66
2022/07/18 04:20:35;;;;;;;5.70;2.55;;;17.40;99.90;;;;;;5004413;28;20031;-66
2022/07/18 04:23:04;;;;;;;3.72;2.25;;;17.40;99.90;;;;;;5005163;28;20991;-68
2022/07/18 04:25:39;;;;;;;3.47;1.75;;;17.50;99.90;;;;;;4997377;28;20055;-74
2022/07/18 04:28:09;;;;;;;2.58;1.60;;;17.50;99.90;;;;;;5004929;28;20100;-66
2022/07/18 04:30:37;;;;;;;4.90;1.83;;;17.50;99.90;;;;;;5001656;28;20534;-67
2022/07/18 04:33:05;;;;;;;3.47;2.50;;;17.50;99.90;;;;;;5007654;28;20556;-68
2022/07/18 04:35:35;;;;;;;5.97;2.10;;;17.50;99.90;;;;;;4998211;28;20507;-68
2022/07/18 04:38:03;;;;;;;3.20;2.05;;;17.50;99.90;;;;;;5000390;28;20050;-71
2022/07/18 04:40:30;;;;;;;3.28;2.13;;;17.50;99.90;;;;;;4999295;28;20179;-70
2022/07/18 04:42:57;;;;;;;8.27;2.47;;;17.50;99.90;;;;;;5000003;28;20418;-67
2022/07/18 04:45:24;;;;;;;3.38;2.13;;;17.50;99.90;;;;;;5002362;28;20163;-67
2022/07/18 04:47:53;;;;;;;5.32;1.77;;;17.50;99.90;;;;;;4994294;28;20034;-67
2022/07/18 04:50:21;;;;;;;2.97;2.50;;;17.50;99.90;;;;;;5004343;28;20108;-66
2022/07/18 04:52:48;;;;;;;5.72;2.80;;;17.50;99.90;;;;;;5006213;28;20354;-69
2022/07/18 04:55:18;;;;;;;3.00;2.20;;;17.50;99.90;;;;;;5006735;28;20046;-67
2022/07/18 04:57:45;;;;;;;3.63;1.97;;;17.50;99.90;;;;;;5002720;28;20813;-67
2022/07/18 05:00:15;;;;;;;5.40;3.05;;;17.50;99.90;;;;;;4997752;28;20409;-69
2022/07/18 05:02:45;;;;;;;6.88;3.22;;;17.50;99.90;;;;;;5008978;28;20040;-69
2022/07/18 05:05:14;;;;;;;5.25;3.22;;;17.50;99.90;;;;;;5002149;28;20120;-67
2022/07/18 05:07:42;;;;;;;3.53;2.17;;;17.60;99.90;;;;;;5007967;28;20045;-67
2022/07/18 05:10:11;;;;;;;5.40;2.53;;;17.50;99.90;;;;;;5005268;28;20116;-66
2022/07/18 05:12:40;;;;;;;5.03;2.45;;;17.60;99.90;;;;;;5005320;28;20062;-67
2022/07/18 05:15:09;;;;;;;3.65;2.10;;;17.60;99.90;;;;;;5008628;28;20104;-66
2022/07/18 05:17:37;;;;;;;5.00;2.58;;;17.60;99.90;;;;;;5009103;28;20034;-65
2022/07/18 05:20:06;;;;;;;5.00;2.08;;;17.50;99.90;;;;;;5007677;28;20120;-65
2022/07/18 05:22:34;;;;;;;4.00;2.60;;;17.60;99.90;;;;;;5008747;28;20037;-66
2022/07/18 05:25:02;;;;;;;2.55;1.90;;;17.70;99.90;;;;;;5005042;28;20117;-67
2022/07/18 05:27:29;;;;;;;6.32;2.65;;;17.70;99.90;;;;;;5005713;28;20088;-65
2022/07/18 05:29:56;;;;;;;4.25;2.40;;;17.80;99.90;;;;;;5008331;28;20045;-66
2022/07/18 05:32:23;;;;;;;4.30;2.15;;;17.80;99.90;;;;;;5001483;28;20057;-66
2022/07/18 05:34:50;;;;;;;3.38;2.85;;;17.90;99.90;;;;;;5008503;28;20121;-66
2022/07/18 05:37:17;;;;;;;4.05;2.20;;;17.80;99.90;;;;;;5008379;28;20096;-65
2022/07/18 05:39:44;;;;;;;4.57;2.20;;;17.80;99.90;;;;;;5005823;28;20046;-65
2022/07/18 05:42:11;;;;;;;10.77;3.70;;;17.80;99.90;;;;;;5006682;28;20050;-70
2022/07/18 05:44:38;;;;;;;2.80;1.70;;;17.80;99.90;;;;;;5006467;28;20034;-66
2022/07/18 05:47:04;;;;;;;3.83;2.10;;;17.70;99.90;;;;;;5008746;28;20056;-65
2022/07/18 05:49:32;;;;;;;6.20;3.40;;;17.70;99.90;;;;;;5009100;28;20084;-67
2022/07/18 05:51:59;;;;;;;4.05;1.92;;;17.80;99.90;;;;;;5007273;28;20072;-65
2022/07/18 05:54:26;;;;;;;4.30;2.25;;;17.80;99.90;;;;;;5005271;28;20046;-69
2022/07/18 05:56:53;;;;;;;6.45;2.70;;;17.80;99.90;;;;;;5004273;28;20086;-65
2022/07/18 05:59:21;;;;;;;3.35;2.28;;;17.80;99.90;;;;;;5000071;28;20058;-65
2022/07/18 06:01:49;;;;;;;6.07;2.40;;;17.90;99.90;;;;;;4999471;28;20037;-68
2022/07/18 06:04:15;;;;;;;5.53;2.50;;;18.00;99.90;;;;;;5000778;28;20530;-67
2022/07/18 06:06:43;;;;;;;2.65;2.17;;;18.00;99.90;;;;;;5001611;28;20030;-66
2022/07/18 06:09:10;;;;;;;2.88;2.10;;;18.00;99.90;;;;;;5004398;28;20046;-66
2022/07/18 06:11:37;;;;;;;5.03;2.55;;;18.00;99.90;;;;;;5002905;28;20042;-66
2022/07/18 06:14:04;;;;;;;6.78;2.70;;;18.00;99.90;;;;;;5004520;28;20038;-66
2022/07/18 06:16:31;;;;;;;4.82;2.72;;;18.00;99.90;;;;;;5005169;28;20081;-66
2022/07/18 06:18:58;;;;;;;3.33;2.20;;;18.00;99.90;;;;;;5008055;28;20038;-65
2022/07/18 06:21:26;;;;;;;3.90;2.15;;;18.10;99.90;;;;;;5008713;28;20112;-67
2022/07/18 06:23:53;;;;;;;3.88;1.83;;;18.20;99.90;;;;;;4999240;28;20042;-65
2022/07/18 06:26:20;;;;;;;5.88;2.95;;;18.20;99.90;;;;;;5000030;28;20050;-66
2022/07/18 06:28:48;;;;;;;4.15;2.33;;;18.30;99.90;;;;;;5005147;28;20038;-66
2022/07/18 06:31:16;;;;;;;5.72;2.83;;;18.40;99.90;;;;;;4999885;28;20364;-68
2022/07/18 06:33:43;;;;;;;2.92;2.20;;;18.50;99.90;;;;;;5007947;28;20078;-65
2022/07/18 06:36:13;;;;;;;4.30;2.13;;;18.50;99.90;;;;;;5007782;28;20073;-67
2022/07/18 06:38:40;;;;;;;2.90;2.15;;;18.50;99.90;;;;;;5006840;28;20109;-65
2022/07/18 06:41:08;;;;;;;5.05;2.42;;;18.50;99.90;;;;;;5009075;28;20046;-66
2022/07/18 06:43:38;;;;;;;5.18;2.47;;;18.60;99.90;;;;;;5006188;28;20040;-70
2022/07/18 06:46:05;;;;;;;7.55;2.75;;;18.50;99.90;;;;;;5005624;28;20404;-65
2022/07/18 06:48:34;;;;;;;6.43;3.08;;;18.50;99.90;;;;;;5002718;28;20041;-66
2022/07/18 06:51:04;;;;;;;4.00;2.10;;;18.30;99.90;;;;;;4998289;28;20041;-67
2022/07/18 06:53:32;;;;;;;4.95;2.53;;;18.20;99.90;;;;;;5009364;28;20383;-68
2022/07/18 06:55:59;;;;;;;6.05;2.70;;;18.00;99.90;;;;;;5002140;28;20088;-65
2022/07/18 06:58:26;;;;;;;5.50;3.28;;;17.90;99.90;;;;;;5008186;28;20050;-67
2022/07/18 07:00:53;;;;;;;4.75;3.35;;;17.90;99.90;;;;;;5001572;28;20729;-66
2022/07/18 07:03:19;;;;;;;3.03;1.98;;;18.00;99.90;;;;;;4996667;28;20061;-65
2022/07/18 07:05:46;;;;;;;3.28;2.35;;;18.20;99.90;;;;;;5000747;28;20120;-68
2022/07/18 07:08:14;;;;;;;4.35;2.22;;;18.30;99.90;;;;;;5002808;28;20068;-66
2022/07/18 07:10:41;;;;;;;3.75;2.28;;;18.40;99.90;;;;;;4999379;28;20066;-68
2022/07/18 07:13:08;;;;;;;5.13;2.67;;;18.30;99.90;;;;;;4999535;28;20065;-66
2022/07/18 07:15:42;;;;;;;4.55;2.20;;;18.20;99.90;;;;;;4994277;28;20052;-67
2022/07/18 07:18:10;;;;;;;5.93;2.97;;;18.20;99.90;;;;;;4999377;28;20108;-65
2022/07/18 07:20:37;;;;;;;10.55;4.85;;;18.20;99.90;;;;;;4996853;28;20069;-65
2022/07/18 07:23:07;;;;;;;5.50;2.53;;;18.30;99.90;;;;;;5006800;28;20042;-66
2022/07/18 07:25:35;;;;;;;3.95;2.63;;;18.30;99.90;;;;;;5003711;28;20048;-66
2022/07/18 07:28:03;;;;;;;2.75;2.55;;;18.30;99.90;;;;;;5008159;28;20104;-68
2022/07/18 07:30:31;;;;;;;3.00;2.10;;;18.20;99.90;;;;;;5006473;28;20041;-66
2022/07/18 07:33:00;;;;;;;3.78;2.55;;;18.30;99.90;;;;;;5004146;28;20445;-71
2022/07/18 07:35:27;;;;;;;3.58;1.90;;;18.20;99.90;;;;;;5006131;28;20041;-68
2022/07/18 07:37:58;;;;;;;6.55;3.28;;;18.10;99.90;;;;;;5008140;28;20444;-66
2022/07/18 07:40:28;;;;;;;3.38;2.97;;;18.10;99.90;;;;;;5004009;28;20081;-68
2022/07/18 07:43:10;;;;;;;4.80;2.33;;;18.10;99.90;;;;;;4997643;28;20567;-65
2022/07/18 07:45:38;;;;;;;4.47;2.85;;;18.20;99.90;;;;;;5007527;28;20057;-66
2022/07/18 07:48:06;;;;;;;5.20;2.90;;;18.30;99.90;;;;;;5005486;28;20104;-66
2022/07/18 07:50:34;;;;;;;2.53;2.30;;;18.40;99.90;;;;;;5004247;28;20037;-66
2022/07/18 07:53:01;;;;;;;5.93;2.65;;;18.50;99.90;;;;;;5005690;28;20116;-67
2022/07/18 07:55:28;;;;;;;4.53;2.78;;;18.50;99.90;;;;;;5007536;28;20100;-66
2022/07/18 07:57:55;;;;;;;3.20;2.47;;;18.60;99.90;;;;;;5006052;28;20065;-65
2022/07/18 08:00:23;;;;;;;5.28;2.55;;;18.60;99.90;;;;;;5000770;28;20042;-67
2022/07/18 08:02:58;;;;;;;6.57;2.40;;;18.60;99.90;;;;;;4993624;28;20381;-65
2022/07/18 08:05:29;;;;;;;2.85;2.40;;;18.60;99.90;;;;;;4994043;28;20480;-66
2022/07/18 08:07:57;;;;;;;3.33;1.88;;;18.70;99.90;;;;;;4996349;28;20122;-71
2022/07/18 08:10:25;;;;;;;4.03;2.33;;;18.70;99.90;;;;;;4995974;28;20114;-65
2022/07/18 08:12:53;;;;;;;3.92;2.35;;;18.50;99.90;;;;;;5000612;28;20042;-68
2022/07/18 08:15:20;;;;;;;5.18;2.42;;;18.50;99.90;;;;;;5000905;28;20041;-66
2022/07/18 08:17:46;;;;;;;4.15;2.33;;;18.60;99.90;;;;;;4994661;28;20082;-68
2022/07/18 08:20:16;;;;;;;3.63;2.50;;;18.60;99.90;;;;;;4999653;28;20034;-66
2022/07/18 08:23:00;;;;;;;4.18;3.78;;;18.60;99.90;;;;;;4997668;28;20064;-67
2022/07/18 08:25:29;;;;;;;3.97;2.15;;;18.70;99.90;;;;;;4995957;28;20381;-66
2022/07/18 08:27:56;;;;;;;5.78;2.75;;;18.70;99.90;;;;;;5007298;28;20049;-72
2022/07/18 08:30:23;;;;;;;2.35;2.10;;;18.80;99.90;;;;;;5005433;28;20084;-65
2022/07/18 08:32:50;;;;;;;7.03;2.58;;;18.90;99.90;;;;;;5006934;28;20465;-65
2022/07/18 08:35:17;;;;;;;4.03;2.03;;;18.90;99.90;;;;;;5003888;28;20144;-65
2022/07/18 08:37:45;;;;;;;3.10;2.47;;;18.90;99.90;;;;;;5009437;28;20045;-65
2022/07/18 08:40:13;;;;;;;3.42;2.70;;;18.90;99.90;;;;;;5000043;28;20132;-65
2022/07/18 08:42:40;;;;;;;2.67;2.08;;;18.90;99.90;;;;;;5003229;28;20085;-68
2022/07/18 08:45:27;;;;;;;3.30;2.30;;;18.90;99.90;;;;;;5003824;28;20464;-66
2022/07/18 08:47:54;;;;;;;3.85;2.45;;;19.00;99.90;;;;;;4999782;28;20053;-66
2022/07/18 08:50:22;;;;;;;3.35;2.53;;;19.10;99.90;;;;;;5005355;28;20034;-68
2022/07/18 08:52:49;;;;;;;3.13;2.35;;;19.20;99.90;;;;;;5008847;28;20080;-66
2022/07/18 08:55:21;;;;;;;1.85;1.55;;;19.20;99.90;;;;;;5001696;28;20046;-66
2022/07/18 08:57:53;;;;;;;5.10;2.30;;;19.30;99.90;;;;;;5007251;28;20069;-66
2022/07/18 09:00:21;;;;;;;2.08;1.77;;;19.40;99.90;;;;;;5001407;28;20065;-69
2022/07/18 09:03:02;;;;;;;2.08;1.70;;;19.40;99.90;;;;;;5006816;28;20030;-67
2022/07/18 09:05:31;;;;;;;3.58;2.28;;;19.30;99.90;;;;;;5008676;28;20152;-65
2022/07/18 09:08:13;;;;;;;;;;;19.40;99.90;;;;;;5004312;28;20147;-66
2022/07/18 09:10:50;;;;;;;5.72;2.63;;;19.40;99.90;;;;;;5005571;28;19918;-65
2022/07/18 09:13:18;;;;;;;2.97;2.00;;;19.40;99.90;;;;;;5005679;28;20142;-66
2022/07/18 09:16:00;;;;;;;7.53;2.40;;;19.20;99.90;;;;;;5005302;28;20041;-65
2022/07/18 09:18:33;;;;;;;2.85;2.17;;;19.20;99.90;;;;;;5003187;28;20061;-67
2022/07/18 09:21:24;;;;;;;3.00;2.75;;;19.30;99.90;;;;;;5001178;28;20129;-68
2022/07/18 09:23:53;;;;;;;3.70;2.72;;;19.40;99.90;;;;;;5007751;28;20464;-70
2022/07/18 09:26:40;;;;;;;5.43;2.58;;;19.50;99.90;;;;;;4999087;28;20037;-66
2022/07/18 09:29:08;;;;;;;4.05;2.25;;;19.50;99.90;;;;;;5004178;28;20057;-72
2022/07/18 09:31:54;;;;;;;3.17;2.75;;;19.50;99.90;;;;;;5005442;28;20351;-68
2022/07/18 09:34:35;;;;;;;2.42;1.92;;;19.60;99.90;;;;;;4999632;28;20344;-67
2022/07/18 09:37:02;;;;;;;5.35;2.67;;;19.60;99.90;;;;;;5003342;28;20061;-65
2022/07/18 09:39:29;;;;;;;2.90;2.17;;;19.50;99.90;;;;;;5008725;28;20108;-67
2022/07/18 09:42:16;;;;;;;3.35;2.42;;;19.60;99.90;;;;;;5005429;28;20038;-66
2022/07/18 09:44:58;;;;;;;3.50;2.95;;;19.80;99.90;;;;;;5003370;28;20119;-65
2022/07/18 09:47:25;;;;;;;3.38;2.65;;;19.80;99.90;;;;;;5007682;28;20037;-66
2022/07/18 09:49:52;;;;;;;3.50;2.78;;;20.00;99.90;;;;;;5000311;28;20088;-67
2022/07/18 09:52:19;;;;;;;2.17;1.98;;;20.20;99.90;;;;;;5009466;28;20037;-65
2022/07/18 09:54:46;;;;;;;4.05;2.15;;;20.20;99.90;;;;;;5006894;28;20050;-68
2022/07/18 09:57:26;;;;;;;2.80;2.50;;;20.20;99.90;;;;;;5003014;28;20085;-66
2022/07/18 09:59:54;;;;;;;2.35;2.13;;;20.10;99.90;;;;;;5004100;28;20860;-65
2022/07/18 10:02:22;;;;;;;2.45;1.80;;;20.10;99.90;;;;;;5008129;28;20498;-67
2022/07/18 10:04:50;;;;;;;4.68;2.30;;;20.00;99.90;;;;;;5008133;28;20042;-66
2022/07/18 10:07:17;;;;;;;3.05;2.05;;;20.00;99.90;;;;;;5012529;28;20081;-66
2022/07/18 10:09:45;;;;;;;3.75;2.63;;;20.20;99.90;;;;;;5007692;28;20082;-66
2022/07/18 10:12:14;;;;;;;2.28;1.95;;;20.40;99.90;;;;;;4999764;28;20029;-66
2022/07/18 10:14:43;;;;;;;2.20;2.00;;;20.40;99.90;;;;;;5005381;28;20745;-67
2022/07/18 10:17:11;;;;;;;6.47;3.03;;;20.40;99.90;;;;;;5011447;28;20048;-65
2022/07/18 10:19:38;;;;;;;3.00;2.50;;;20.60;99.90;;;;;;5004079;28;20066;-66
2022/07/18 10:22:07;;;;;;;3.53;2.13;;;20.70;99.90;;;;;;5012381;28;20125;-65
2022/07/18 10:24:39;;;;;;;3.15;2.15;;;20.90;99.90;;;;;;5004100;28;20037;-66
2022/07/18 10:27:16;;;;;;;5.80;2.03;;;20.90;99.90;;;;;;5008858;28;20070;-67
2022/07/18 10:30:12;;;;;;;2.40;2.15;;;20.80;99.90;;;;;;5008363;28;20037;-73
2022/07/18 10:32:39;;;;;;;1.98;1.88;;;20.60;99.90;;;;;;5009035;28;20460;-67
2022/07/18 10:35:08;;;;;;;2.53;2.03;;;20.60;99.90;;;;;;5010156;28;20109;-66
2022/07/18 10:37:35;;;;;;;2.65;2.35;;;20.60;99.90;;;;;;5011888;28;20050;-66
2022/07/18 10:40:27;;;;;;;2.78;1.60;;;20.70;99.90;;;;;;5007570;28;20104;-66
2022/07/18 10:43:31;;;;;;;2.55;2.10;;;20.80;99.90;;;;;;5007399;28;20112;-68
2022/07/18 10:46:00;;;;;;;5.43;2.25;;;20.80;99.90;;;;;;5007062;28;20056;-67
2022/07/18 10:48:33;;;;;;;3.00;2.13;;;20.80;99.90;;;;;;5008782;28;20092;-66
2022/07/18 10:51:01;;;;;;;2.33;2.13;;;20.90;99.90;;;;;;5005322;28;20436;-66
2022/07/18 10:53:55;;;;;;;4.97;2.45;;;20.90;99.90;;;;;;5011225;28;20045;-65
2022/07/18 10:56:28;;;;;;;1.98;1.42;;;20.70;99.90;;;;;;5002605;28;20053;-66
2022/07/18 10:58:55;;;;;;;2.25;1.95;;;20.70;99.90;;;;;;5009428;28;20456;-66
2022/07/18 11:01:24;;;;;;;2.25;1.58;;;20.70;99.90;;;;;;5009108;28;20081;-67
2022/07/18 11:04:27;;;;;;;1.35;1.23;;;20.70;99.90;;;;;;5010272;28;20045;-68
2022/07/18 11:07:15;;;;;;;3.13;2.25;;;20.60;99.90;;;;;;5010201;28;20049;-66
2022/07/18 11:09:48;;;;;;;2.97;1.80;;;20.70;99.90;;;;;;5007943;28;20456;-68
2022/07/18 11:12:30;;;;;;;2.70;2.28;;;21.00;99.90;;;;;;5007703;28;20056;-67
2022/07/18 11:15:05;;;;;;;1.75;1.52;;;21.00;99.90;;;;;;5008440;28;20118;-66
2022/07/18 11:17:51;;;;;;;2.33;2.13;;;21.10;99.90;;;;;;5008371;28;20076;-67
2022/07/18 11:20:41;;;;;;;1.40;1.30;;;21.20;99.90;;;;;;5005437;28;20298;-69
2022/07/18 11:23:20;;;;;;;5.80;1.88;;;21.30;99.90;;;;;;5010536;28;20541;-67
2022/07/18 11:25:50;;;;;;;1.40;1.25;;;21.50;99.90;;;;;;5010535;28;20353;-66
2022/07/18 11:28:25;;;;;;;1.38;1.23;;;21.60;99.90;;;;;;5008539;28;20456;-66
2022/07/18 11:31:00;;;;;;;1.88;1.77;;;21.70;99.90;;;;;;5006654;28;20479;-69
2022/07/18 11:33:30;;;;;;;3.97;1.60;;;21.80;99.90;;;;;;5009638;28;20056;-66
2022/07/18 11:36:09;;;;;;;2.63;1.27;;;21.70;99.90;;;;;;5002129;28;20131;-66
2022/07/18 11:39:05;;;;;;;1.80;1.70;;;21.90;99.90;;;;;;4997164;28;20104;-69
2022/07/18 11:41:35;;;;;;;1.02;0.70;;;22.00;99.90;;;;;;4998722;28;20057;-67
2022/07/18 11:44:02;;;;;;;1.88;1.20;;;22.10;99.90;;;;;;5005124;28;20546;-66
2022/07/18 11:46:29;;;;;;;1.63;1.02;;;22.00;99.90;;;;;;5004088;28;21063;-69
2022/07/18 11:49:02;;;;;;;1.38;1.27;;;22.10;99.90;;;;;;5008729;28;20044;-66
2022/07/18 11:51:39;;;;;;;1.83;1.50;;;22.30;99.90;;;;;;5010516;28;20085;-65
2022/07/18 11:54:07;;;;;;;1.35;1.20;;;22.50;99.90;;;;;;5010405;28;20224;-69
2022/07/18 11:56:48;;;;;;;3.53;2.05;;;22.20;99.90;;;;;;5005025;28;20053;-66
2022/07/18 11:59:16;;;;;;;1.60;1.50;;;22.20;99.90;;;;;;4994577;28;20065;-70
2022/07/18 12:01:52;;;;;;;3.53;1.70;;;22.30;99.90;;;;;;5002797;28;20467;-67
2022/07/18 12:04:21;;;;;;;1.98;1.45;;;22.50;99.90;;;;;;4997540;28;20127;-72
2022/07/18 12:07:16;;;;;;;2.92;1.40;;;22.60;99.90;;;;;;5000509;28;20104;-68
2022/07/18 12:09:44;;;;;;;3.20;1.10;;;22.40;99.90;;;;;;5005188;28;20056;-66
2022/07/18 12:12:13;;;;;;;2.05;1.40;;;22.30;99.90;;;;;;5000018;28;20045;-66
2022/07/18 12:15:02;;;;;;;2.22;1.25;;;22.30;99.90;;;;;;4996590;28;20030;-76
2022/07/18 12:17:30;;;;;;;1.80;1.40;;;22.40;99.90;;;;;;5003909;28;20298;-66
2022/07/18 12:20:21;;;;;;;1.58;1.48;;;22.20;99.90;;;;;;4998755;28;20125;-67
2022/07/18 12:23:27;;;;;;;1.35;1.25;;;22.40;99.90;;;;;;5007504;28;20038;-66
2022/07/18 12:25:54;;;;;;;1.58;1.48;;;22.40;99.90;;;;;;4986000;28;20134;-68
2022/07/18 12:28:25;;;;;;;1.75;1.50;;;22.60;99.90;;;;;;5001626;28;20444;-66
2022/07/18 12:30:53;;;;;;;2.38;1.30;;;22.50;99.90;;;;;;5003975;28;20035;-69
2022/07/18 12:33:26;;;;;;;2.58;0.90;;;22.60;99.90;;;;;;5003093;28;20340;-67
2022/07/18 12:35:58;;;;;;;1.80;1.20;;;22.80;99.90;;;;;;5000644;28;20104;-67
2022/07/18 12:38:25;;;;;;;1.30;1.20;;;23.00;99.90;;;;;;5007099;28;20100;-66
2022/07/18 12:40:59;;;;;;;2.65;1.20;;;23.10;99.90;;;;;;5007517;28;20644;-66
2022/07/18 12:43:31;;;;;;;2.13;1.20;;;23.30;99.90;;;;;;5006769;28;20046;-69
2022/07/18 12:46:01;;;;;;;1.52;1.30;;;23.40;99.90;;;;;;5004966;28;20037;-75
2022/07/18 12:48:30;;;;;;;1.92;1.60;;;23.50;99.90;;;;;;5006116;28;20042;-66
2022/07/18 12:51:07;;;;;;;1.38;1.27;;;23.30;99.90;;;;;;5009293;28;20465;-68
2022/07/18 12:53:37;;;;;;;1.33;1.23;;;23.10;99.90;;;;;;5003539;28;20050;-66
2022/07/18 12:56:04;;;;;;;1.38;1.27;;;23.10;99.90;;;;;;5001198;28;20062;-66
2022/07/18 12:58:32;;;;;;;1.02;0.93;;;22.90;99.90;;;;;;5005286;28;20176;-67
2022/07/18 13:00:59;;;;;;;1.35;1.25;;;22.70;99.90;;;;;;5008010;28;20057;-66
2022/07/18 13:03:34;;;;;;;2.63;1.30;;;22.50;99.90;;;;;;5007576;28;20122;-68
2022/07/18 13:06:01;;;;;;;1.50;1.38;;;22.40;99.90;;;;;;5009114;28;20136;-66